Terminal Aerodrome Forecast
Issued by NWS

Home | Current Version | Previous Version | Text Only | Print | Product List | Glossary On
Versions: 1 2 3 4 5 6 7 8 9 10 11 12 13 14 15 16 17 18 19 20 21 22 23 24 25
964
FTUS41 KGYX 290312 AAA
TAFRKD
TAF AMD
KRKD 290312Z 2903/2924 06005KT P6SM BKN035 BKN080
     FM290600 06005KT 3SM BR BKN004 OVC010
     FM290800 07006KT 2SM BR OVC004
     FM291500 10008KT 5SM BR OVC012
      AMD LTD TO CLD VIS AND WIND=

USA.gov is the U.S. government's official web portal to all federal, state and local government web resources and services.